Logan, UT

7:07 AM MDT on May 06, 2015 (GMT -0600)
Logan 15th Ward | | Change Station
CLOSE
Current Station
Personal Weather Station
Location: Logan, UT
Elevation: 4524 ft
Nearby Weather Stations

Elev 4524 ft 41.74 °N, 111.84 °W | Updated 2 minutes ago

Fog
Fog
46.2 °F
Feels Like 46 °F
N
0.0
Wind Variable Wind from East
Gusts 0.0 mph

Today
High -- | Low -- °F
--% Chance of Precip.
Yesterday
High -- | Low -- °F
Precip. -- in
6:17 AM 8:30 PM
Waning Gibbous, 94% visible
Pressure 29.75 in
Visibility 0.2 miles
Clouds
Windchill 46 °F
Dew Point 45 °F
Humidity 97%
Rainfall 0.00 in
Snow Depth Not available.
UV Not available.
Pollen 7.40 out of 12
Air Quality Not available.
Flu Activity Regional
METAR KLGU 061251Z AUTO 00000KT 1/4SM FG VV001 07/06 A2982 RMK AO2 SLP073 T00670061

More Conditions Fewer Conditions

Pressure 29.75 in
Visibility 0.2 miles
Clouds
Windchill 46 °F
Dew Point 45 °F
Humidity 97%
Rainfall 0.00 in
Snow Depth Not available.
UV Not available.
Pollen 7.40 out of 12
Air Quality Not available.
Flu Activity Regional
METAR KLGU 061251Z AUTO 00000KT 1/4SM FG VV001 07/06 A2982 RMK AO2 SLP073 T00670061

More Conditions Fewer Conditions

10-Day Weather Forecast

Almanac

Astronomy

May. 06, 2015 Rise Set
Actual Time
Civil Twilight
Nautical Twilight
Astronomical Twilight
Moon
Length of Visible Light
Length of Day
Tomorrow will be .
, % of the Moon is Illuminated

Today's Extremes

State Highs State Lows

Community

WunderPhotos

Upload Photos

1,818,892 photos uploaded!

WunderBlogs® & News

Nearby

Air Quality

  Air Quality AQ Index Pollutant
Not available.

Snow Depth

Station Depth Elevation

Earthquake Activity

City Distance Mag. Time & Date
Minimum magnitude displayed is 2.5.

Coastal Water Temperatures

Place Temperature

Stations

Nearby Weather Stations

Station Location Temp. Windchill Dew Point Humidity Wind Precip. Elev Updated Type